createdAt,value
2018-12-23T00:02:15.826Z,10.20
2018-12-23T00:04:43.817Z,10.20
2018-12-23T00:07:11.931Z,10.20
2018-12-23T00:09:39.971Z,10.10
2018-12-23T00:12:07.531Z,10.20
2018-12-23T00:14:35.524Z,10.10
2018-12-23T00:17:03.352Z,10.10
2018-12-23T00:19:30.966Z,10.30
2018-12-23T00:22:00.296Z,10.10
2018-12-23T00:24:27.597Z,10.20
2018-12-23T00:26:54.966Z,10.20
2018-12-23T00:29:22.338Z,10.10
2018-12-23T00:31:49.685Z,10.20
2018-12-23T00:34:17.862Z,10.10
2018-12-23T00:36:45.532Z,10.00
2018-12-23T00:39:13.074Z,10.00
2018-12-23T00:41:40.775Z,10.10
2018-12-23T00:44:08.166Z,10.10
2018-12-23T00:46:35.498Z,10.10
2018-12-23T00:49:03.956Z,10.00
2018-12-23T00:51:31.835Z,10.00
2018-12-23T00:53:59.256Z,10.00
2018-12-23T00:56:27.399Z,10.00
2018-12-23T00:58:54.702Z,10.00
2018-12-23T01:01:22.311Z,10.00
2018-12-23T01:03:50.062Z,10.00
2018-12-23T01:06:17.597Z,10.00
2018-12-23T01:08:45.590Z,10.00
2018-12-23T01:11:12.907Z,10.00
2018-12-23T01:13:40.993Z,10.00
2018-12-23T01:16:08.520Z,10.10
2018-12-23T01:18:35.841Z,10.00
2018-12-23T01:21:03.600Z,9.90
2018-12-23T01:23:32.674Z,10.00
2018-12-23T01:26:00.359Z,10.00
2018-12-23T01:28:27.764Z,10.00
2018-12-23T01:30:56.364Z,10.00
2018-12-23T01:33:23.763Z,9.90
2018-12-23T01:35:51.771Z,9.90
2018-12-23T01:38:19.513Z,9.90
2018-12-23T01:40:49.277Z,9.90
2018-12-23T01:43:16.850Z,9.90
2018-12-23T01:45:44.714Z,10.00
2018-12-23T01:48:12.511Z,10.00
2018-12-23T01:50:39.941Z,9.90
2018-12-23T01:53:07.439Z,10.00
2018-12-23T01:55:34.959Z,10.00
2018-12-23T01:58:02.823Z,9.90
2018-12-23T02:00:30.144Z,9.90
2018-12-23T02:02:57.489Z,10.00
2018-12-23T02:05:25.150Z,10.00
2018-12-23T02:07:53.126Z,9.90
2018-12-23T02:10:20.956Z,9.90
2018-12-23T02:12:48.290Z,10.00
2018-12-23T02:15:16.243Z,10.00
2018-12-23T02:17:44.223Z,10.00
2018-12-23T02:20:12.129Z,9.90
2018-12-23T02:22:39.455Z,9.90
2018-12-23T02:25:06.997Z,10.00
2018-12-23T02:27:34.741Z,9.90
2018-12-23T02:30:02.601Z,9.90
2018-12-23T02:32:30.020Z,9.90
2018-12-23T02:34:58.958Z,9.90
2018-12-23T02:37:26.695Z,9.90
2018-12-23T02:39:54.086Z,9.90
2018-12-23T02:42:21.874Z,9.90
2018-12-23T02:44:49.394Z,9.90
2018-12-23T02:47:16.902Z,9.80
2018-12-23T02:49:44.812Z,9.90
2018-12-23T02:52:12.584Z,9.90
2018-12-23T02:54:40.309Z,9.90
2018-12-23T02:57:08.069Z,9.80
2018-12-23T02:59:36.088Z,9.80
2018-12-23T03:02:04.608Z,9.80
2018-12-23T03:04:31.917Z,9.80
2018-12-23T03:06:59.827Z,9.80
2018-12-23T03:09:27.691Z,9.80
2018-12-23T03:11:55.339Z,9.90
2018-12-23T03:14:23.975Z,9.90
2018-12-23T03:16:51.436Z,9.90
2018-12-23T03:19:19.752Z,9.90
2018-12-23T03:21:47.919Z,9.90
2018-12-23T03:24:15.822Z,9.90
2018-12-23T03:26:43.144Z,9.90
2018-12-23T03:29:11.846Z,9.90
2018-12-23T03:36:57.842Z,8.20
2018-12-23T03:39:25.721Z,9.80
2018-12-23T03:41:54.062Z,9.80
2018-12-23T03:44:21.457Z,9.80
2018-12-23T03:46:49.635Z,9.90
2018-12-23T03:49:17.329Z,9.80
2018-12-23T03:51:46.084Z,9.90
2018-12-23T03:54:13.851Z,9.90
2018-12-23T03:56:41.849Z,9.80
2018-12-23T03:59:09.737Z,9.80
2018-12-23T04:01:37.354Z,9.80
2018-12-23T04:04:05.136Z,9.80
2018-12-23T04:06:33.898Z,9.80
2018-12-23T04:09:01.938Z,9.70
2018-12-23T04:11:29.339Z,9.80
2018-12-23T04:13:57.655Z,9.80
2018-12-23T04:16:25.007Z,9.80
2018-12-23T04:18:52.759Z,9.80
2018-12-23T04:21:20.062Z,9.80
2018-12-23T04:23:47.508Z,9.80
2018-12-23T04:26:14.846Z,9.80
2018-12-23T04:28:42.844Z,9.80
2018-12-23T04:31:10.891Z,9.80
2018-12-23T04:33:38.956Z,9.80
2018-12-23T04:36:06.915Z,9.80
2018-12-23T04:38:34.840Z,9.70
2018-12-23T04:41:02.099Z,9.70
2018-12-23T04:43:30.464Z,9.70
2018-12-23T04:45:58.353Z,9.60
2018-12-23T04:48:26.263Z,9.70
2018-12-23T04:50:53.753Z,9.70
2018-12-23T04:53:21.887Z,9.70
2018-12-23T04:55:51.139Z,9.70
2018-12-23T04:58:18.817Z,9.70
2018-12-23T05:00:46.440Z,9.70
2018-12-23T05:03:13.795Z,9.60
2018-12-23T05:05:41.819Z,9.70
2018-12-23T05:08:09.225Z,9.70
2018-12-23T05:10:36.647Z,9.80
2018-12-23T05:13:05.258Z,9.70
2018-12-23T05:15:33.447Z,9.80
2018-12-23T05:18:01.291Z,9.70
2018-12-23T05:20:28.688Z,9.70
2018-12-23T05:22:56.111Z,9.80
2018-12-23T05:25:24.155Z,9.80
2018-12-23T05:27:51.759Z,9.80
2018-12-23T05:30:19.366Z,9.80
2018-12-23T05:32:46.729Z,9.80
2018-12-23T05:35:14.503Z,9.80
2018-12-23T05:37:42.556Z,9.80
2018-12-23T05:40:10.008Z,9.80
2018-12-23T05:42:37.396Z,9.70
2018-12-23T05:45:05.041Z,9.70
2018-12-23T05:47:33.242Z,9.70
2018-12-23T05:50:01.234Z,9.80
2018-12-23T05:52:28.565Z,9.80
2018-12-23T05:54:56.402Z,9.80
2018-12-23T05:57:24.107Z,9.80
2018-12-23T05:59:51.874Z,9.80
2018-12-23T06:02:19.386Z,9.80
2018-12-23T06:04:47.837Z,9.80
2018-12-23T06:07:15.562Z,9.80
2018-12-23T06:09:43.678Z,9.80
2018-12-23T06:12:12.855Z,9.70
2018-12-23T06:14:40.171Z,9.80
2018-12-23T06:17:08.314Z,9.80
2018-12-23T06:19:35.654Z,9.80
2018-12-23T06:22:03.699Z,9.80
2018-12-23T06:24:32.224Z,9.80
2018-12-23T06:27:00.395Z,9.80
2018-12-23T06:29:28.618Z,9.80
2018-12-23T06:31:56.564Z,9.80
2018-12-23T06:34:24.259Z,9.90
2018-12-23T06:36:52.506Z,9.80
2018-12-23T06:39:21.008Z,9.90
2018-12-23T06:41:48.751Z,9.90
2018-12-23T06:44:17.086Z,9.80
2018-12-23T06:46:44.481Z,9.80
2018-12-23T06:49:12.091Z,9.90
2018-12-23T06:51:40.745Z,9.90
2018-12-23T06:54:08.075Z,9.90
2018-12-23T06:56:35.939Z,9.80
2018-12-23T06:59:03.526Z,9.90
2018-12-23T07:01:31.164Z,10.00
2018-12-23T07:03:58.486Z,10.00
2018-12-23T07:06:26.753Z,10.00
2018-12-23T07:08:54.117Z,10.10
2018-12-23T07:11:22.160Z,10.00
2018-12-23T07:13:49.468Z,10.00
2018-12-23T07:16:17.981Z,10.00
2018-12-23T07:18:45.251Z,9.90
2018-12-23T07:21:12.672Z,10.00
2018-12-23T07:23:40.741Z,10.00
2018-12-23T07:26:08.003Z,10.00
2018-12-23T07:28:35.862Z,10.00
2018-12-23T07:31:03.742Z,10.00
2018-12-23T07:33:31.038Z,10.00
2018-12-23T07:35:58.339Z,10.00
2018-12-23T07:38:25.619Z,10.10
2018-12-23T07:40:53.408Z,10.10
2018-12-23T07:43:21.167Z,10.10
2018-12-23T07:45:48.493Z,10.10
2018-12-23T07:48:15.810Z,10.00
2018-12-23T07:50:43.096Z,10.00
2018-12-23T07:53:10.452Z,10.10
2018-12-23T07:55:37.851Z,10.10
2018-12-23T07:58:06.071Z,10.10
2018-12-23T08:00:33.613Z,10.00
2018-12-23T08:03:01.076Z,10.00
2018-12-23T08:05:28.718Z,10.10
2018-12-23T08:07:57.091Z,10.10
2018-12-23T08:10:24.623Z,10.10
2018-12-23T08:12:53.877Z,10.10
2018-12-23T08:15:22.330Z,10.10
2018-12-23T08:17:49.988Z,10.10
2018-12-23T08:20:18.131Z,10.10
2018-12-23T08:22:46.381Z,10.10
2018-12-23T08:25:14.542Z,10.10
2018-12-23T08:27:41.874Z,10.10
2018-12-23T08:30:09.162Z,10.20
2018-12-23T08:32:37.849Z,10.20
2018-12-23T08:35:05.883Z,10.20
2018-12-23T08:37:33.610Z,10.20
2018-12-23T08:40:01.567Z,10.20
2018-12-23T08:42:29.491Z,10.20
2018-12-23T08:44:57.212Z,10.20
2018-12-23T08:47:25.638Z,10.20
2018-12-23T08:49:53.528Z,10.10
2018-12-23T08:52:21.230Z,10.20
2018-12-23T08:54:48.940Z,10.20
2018-12-23T08:57:16.675Z,10.20
2018-12-23T08:59:44.554Z,10.20
2018-12-23T09:02:12.876Z,10.20
2018-12-23T09:04:40.531Z,10.20
2018-12-23T09:07:08.711Z,10.30
2018-12-23T09:09:37.176Z,10.30
2018-12-23T09:12:04.958Z,10.30
2018-12-23T09:14:32.398Z,10.30
2018-12-23T09:17:00.367Z,10.20
2018-12-23T09:19:28.444Z,10.30
2018-12-23T09:21:55.818Z,10.30
2018-12-23T09:24:23.884Z,10.30
2018-12-23T09:26:51.923Z,10.30
2018-12-23T09:29:19.812Z,10.30
2018-12-23T09:31:47.959Z,10.30
2018-12-23T09:34:15.607Z,10.30
2018-12-23T09:36:44.321Z,10.30
2018-12-23T09:39:12.686Z,10.30
2018-12-23T09:41:40.430Z,10.30
2018-12-23T09:44:08.323Z,10.40
2018-12-23T09:46:36.018Z,10.40
2018-12-23T09:49:04.088Z,10.30
2018-12-23T09:51:32.513Z,10.40
2018-12-23T09:54:00.216Z,10.40
2018-12-23T09:56:27.491Z,10.40
2018-12-23T09:58:55.551Z,10.50
2018-12-23T10:01:23.138Z,10.40
2018-12-23T10:03:52.429Z,10.50
2018-12-23T10:06:20.315Z,10.50
2018-12-23T10:08:48.150Z,10.50
2018-12-23T10:11:15.549Z,10.50
2018-12-23T10:13:42.942Z,10.50
2018-12-23T10:16:11.226Z,10.60
2018-12-23T10:18:38.506Z,10.50
2018-12-23T10:21:05.853Z,10.50
2018-12-23T10:23:33.195Z,10.50
2018-12-23T10:26:01.332Z,10.50
2018-12-23T10:28:28.658Z,10.50
2018-12-23T10:30:56.112Z,10.50
2018-12-23T10:33:23.861Z,10.50
2018-12-23T10:35:51.571Z,10.50
2018-12-23T10:38:18.979Z,10.60
2018-12-23T10:40:47.150Z,10.60
2018-12-23T10:43:14.895Z,10.60
2018-12-23T10:45:42.514Z,10.50
2018-12-23T10:48:10.424Z,10.60
2018-12-23T10:50:38.182Z,10.50
2018-12-23T10:53:05.649Z,10.60
2018-12-23T10:55:35.164Z,10.60
2018-12-23T10:58:03.262Z,10.70
2018-12-23T11:00:30.630Z,10.70
2018-12-23T11:02:58.062Z,10.70
2018-12-23T11:05:26.038Z,10.60
2018-12-23T11:07:53.742Z,10.60
2018-12-23T11:10:21.427Z,10.60
2018-12-23T11:12:50.727Z,10.60
2018-12-23T11:15:18.036Z,10.60
2018-12-23T11:17:45.497Z,10.60
2018-12-23T11:20:13.399Z,10.60
2018-12-23T11:22:41.090Z,10.60
2018-12-23T11:25:09.435Z,10.60
2018-12-23T11:27:38.314Z,10.60
2018-12-23T11:30:08.029Z,10.60
2018-12-23T11:32:36.744Z,10.60
2018-12-23T11:35:04.279Z,10.60
2018-12-23T11:37:32.803Z,10.60
2018-12-23T11:40:00.503Z,10.60
2018-12-23T11:42:27.947Z,10.70
2018-12-23T11:44:55.316Z,10.70
2018-12-23T11:47:22.626Z,10.70
2018-12-23T11:49:50.092Z,10.60
2018-12-23T11:52:17.754Z,10.70
2018-12-23T11:54:45.821Z,10.70
2018-12-23T11:57:14.861Z,10.60
2018-12-23T11:59:45.011Z,10.60
2018-12-23T12:02:15.398Z,10.70
2018-12-23T12:04:42.674Z,10.70
2018-12-23T12:07:10.636Z,10.70
2018-12-23T12:09:38.005Z,10.70
2018-12-23T12:12:05.694Z,10.70
2018-12-23T12:14:33.053Z,10.70
2018-12-23T12:17:00.618Z,10.70
2018-12-23T12:19:27.905Z,10.80
2018-12-23T12:21:55.603Z,10.70
2018-12-23T12:24:23.209Z,10.80
2018-12-23T12:26:50.634Z,10.70
2018-12-23T12:29:18.268Z,10.80
2018-12-23T12:31:46.674Z,10.80
2018-12-23T12:34:14.706Z,10.80
2018-12-23T12:36:43.135Z,10.80
2018-12-23T12:39:10.881Z,10.80
2018-12-23T12:41:38.235Z,10.80
2018-12-23T12:44:05.554Z,10.80
2018-12-23T12:46:33.643Z,10.80
2018-12-23T12:49:00.960Z,10.80
2018-12-23T12:51:28.306Z,10.80
2018-12-23T12:53:55.662Z,10.80
2018-12-23T12:56:23.498Z,10.80
2018-12-23T12:58:51.598Z,10.80
2018-12-23T13:01:19.227Z,10.80
2018-12-23T13:03:46.668Z,10.80
2018-12-23T13:06:14.584Z,10.80
2018-12-23T13:08:42.913Z,10.70
2018-12-23T13:11:10.218Z,10.70
2018-12-23T13:13:37.521Z,10.70
2018-12-23T13:16:05.438Z,10.70
2018-12-23T13:18:34.159Z,10.70
2018-12-23T13:21:01.460Z,10.60
2018-12-23T13:23:29.173Z,10.70
2018-12-23T13:25:56.543Z,10.60
2018-12-23T13:28:23.850Z,10.60
2018-12-23T13:30:51.483Z,10.60
2018-12-23T13:33:18.821Z,10.60
2018-12-23T13:35:46.118Z,10.70
2018-12-23T13:38:13.823Z,10.60
2018-12-23T13:40:52.724Z,10.60
2018-12-23T13:43:45.763Z,10.60
2018-12-23T13:46:28.906Z,10.60
2018-12-23T13:49:40.128Z,10.60
2018-12-23T13:52:21.060Z,10.60
2018-12-23T13:55:01.951Z,10.60
2018-12-23T13:57:45.158Z,10.60
2018-12-23T14:00:23.659Z,10.60
2018-12-23T14:03:02.945Z,10.60
2018-12-23T14:08:00.200Z,10.70
2018-12-23T14:10:41.244Z,10.60
2018-12-23T14:13:08.552Z,10.60
2018-12-23T14:15:35.967Z,10.60
2018-12-23T14:18:03.803Z,10.60
2018-12-23T14:20:31.421Z,10.60
2018-12-23T14:22:58.750Z,10.60
2018-12-23T14:25:26.622Z,10.40
2018-12-23T14:27:54.330Z,10.60
2018-12-23T14:30:22.630Z,10.60
2018-12-23T14:32:50.554Z,10.60
2018-12-23T14:35:17.834Z,10.60
2018-12-23T14:37:45.127Z,10.50
2018-12-23T14:40:12.624Z,10.50
2018-12-23T14:42:41.250Z,10.80
2018-12-23T14:45:10.478Z,10.60
2018-12-23T14:47:37.802Z,10.60
2018-12-23T14:50:07.392Z,10.60
2018-12-23T14:52:34.798Z,10.50
2018-12-23T14:55:02.116Z,10.50
2018-12-23T14:57:30.913Z,10.60
2018-12-23T14:59:58.774Z,10.50
2018-12-23T15:02:26.831Z,10.50
2018-12-23T15:04:54.213Z,10.50
2018-12-23T15:07:21.798Z,10.50
2018-12-23T15:09:49.601Z,10.50
2018-12-23T15:12:17.642Z,10.50
2018-12-23T15:14:45.693Z,10.50
2018-12-23T15:17:13.352Z,10.50
2018-12-23T15:19:41.914Z,10.50
2018-12-23T15:22:09.260Z,10.50
2018-12-23T15:24:37.815Z,10.50
2018-12-23T15:27:05.460Z,10.50
2018-12-23T15:29:32.795Z,10.50
2018-12-23T15:32:00.087Z,10.50
2018-12-23T15:34:27.522Z,10.50
2018-12-23T15:36:56.231Z,10.50
2018-12-23T15:39:23.878Z,10.50
2018-12-23T15:41:51.270Z,10.50
2018-12-23T15:44:25.707Z,10.60
2018-12-23T15:46:53.384Z,10.40
2018-12-23T15:49:20.672Z,10.40
2018-12-23T15:51:48.128Z,10.40
2018-12-23T15:54:16.082Z,10.40
2018-12-23T15:56:43.883Z,10.40
2018-12-23T15:59:11.900Z,10.40
2018-12-23T16:01:39.530Z,10.40
2018-12-23T16:04:06.878Z,10.40
2018-12-23T16:06:36.288Z,10.40
2018-12-23T16:09:06.385Z,10.50
2018-12-23T16:11:36.058Z,10.40
2018-12-23T16:14:03.359Z,10.40
2018-12-23T16:16:31.119Z,10.40
2018-12-23T16:19:01.920Z,10.30
2018-12-23T16:21:30.854Z,10.30
2018-12-23T16:23:58.742Z,10.30
2018-12-23T16:26:26.420Z,10.40
2018-12-23T16:28:54.163Z,10.30
2018-12-23T16:31:21.888Z,10.20
2018-12-23T16:33:49.564Z,10.30
2018-12-23T16:36:18.124Z,10.20
2018-12-23T16:38:45.570Z,10.20
2018-12-23T16:41:13.923Z,10.20
2018-12-23T16:43:41.734Z,10.20
2018-12-23T16:46:10.198Z,10.20
2018-12-23T16:48:38.018Z,10.30
2018-12-23T16:51:05.681Z,10.30
2018-12-23T16:53:32.959Z,10.30
2018-12-23T16:56:00.855Z,10.30
2018-12-23T16:58:28.149Z,10.30
2018-12-23T17:00:55.459Z,10.20
2018-12-23T17:03:22.762Z,10.20
2018-12-23T17:05:50.183Z,10.20
2018-12-23T17:08:17.817Z,10.20
2018-12-23T17:10:45.171Z,10.30
2018-12-23T17:13:12.511Z,10.30
2018-12-23T17:15:40.456Z,10.30
2018-12-23T17:18:07.829Z,10.30
2018-12-23T17:20:36.478Z,10.30
2018-12-23T17:23:05.838Z,10.30
2018-12-23T17:25:33.265Z,10.30
2018-12-23T17:28:01.080Z,10.30
2018-12-23T17:30:29.161Z,10.20
2018-12-23T17:32:56.787Z,10.20
2018-12-23T17:35:24.751Z,10.20
2018-12-23T17:37:54.348Z,10.20
2018-12-23T17:40:23.037Z,10.20
2018-12-23T17:42:51.991Z,10.20
2018-12-23T17:45:19.396Z,10.30
2018-12-23T17:47:47.175Z,10.30
2018-12-23T17:50:14.961Z,10.30
2018-12-23T17:52:42.710Z,10.40
2018-12-23T17:55:09.991Z,10.30
2018-12-23T17:57:37.548Z,10.30
2018-12-23T18:00:05.374Z,10.30
2018-12-23T18:02:33.202Z,10.30
2018-12-23T18:05:00.913Z,10.30
2018-12-23T18:07:28.444Z,10.20
2018-12-23T18:09:56.170Z,10.30
2018-12-23T18:12:25.162Z,10.20
2018-12-23T18:14:53.914Z,10.20
2018-12-23T18:17:22.831Z,10.20
2018-12-23T18:19:53.230Z,10.30
2018-12-23T18:22:21.500Z,10.20
2018-12-23T18:24:50.521Z,10.30
2018-12-23T18:27:18.310Z,10.30
2018-12-23T18:29:46.144Z,10.30
2018-12-23T18:32:15.238Z,10.30
2018-12-23T18:34:43.778Z,10.30
2018-12-23T18:37:13.281Z,10.20
2018-12-23T18:39:41.716Z,10.20
2018-12-23T18:42:10.736Z,10.30
2018-12-23T18:44:38.703Z,10.30
2018-12-23T18:47:07.109Z,10.30
2018-12-23T18:49:37.107Z,10.30
2018-12-23T18:52:05.608Z,10.30
2018-12-23T18:54:33.539Z,10.30
2018-12-23T18:57:07.036Z,10.40
2018-12-23T18:59:38.741Z,10.30
2018-12-23T19:02:10.021Z,10.30
2018-12-23T19:04:38.079Z,10.20
2018-12-23T19:07:06.682Z,10.20
2018-12-23T19:11:51.292Z,10.30
2018-12-23T19:14:33.321Z,10.30
2018-12-23T19:19:48.671Z,10.30
2018-12-23T19:22:33.427Z,10.30
2018-12-23T19:27:19.771Z,10.30
2018-12-23T19:30:02.923Z,10.30
2018-12-23T19:32:44.559Z,10.30
2018-12-23T19:35:23.975Z,10.30
2018-12-23T19:38:31.210Z,10.30
2018-12-23T19:42:16.358Z,10.80
2018-12-23T19:45:02.142Z,10.30
2018-12-23T19:47:43.983Z,10.30
2018-12-23T19:54:26.099Z,10.30
2018-12-23T19:59:11.644Z,10.30
2018-12-23T20:03:56.339Z,10.30
2018-12-23T20:06:38.762Z,10.40
2018-12-23T20:09:21.210Z,10.50
2018-12-23T20:14:05.971Z,10.60
2018-12-23T20:17:50.524Z,10.80
2018-12-23T20:22:37.728Z,11.00
2018-12-23T20:25:16.820Z,11.10
2018-12-23T20:28:25.101Z,11.10
2018-12-23T20:31:34.856Z,11.10
2018-12-23T20:38:20.664Z,11.20
2018-12-23T20:43:10.506Z,11.20
2018-12-23T20:45:49.573Z,11.30
2018-12-23T20:50:53.754Z,11.20
2018-12-23T20:53:36.842Z,11.20
2018-12-23T20:56:20.810Z,11.30
2018-12-23T20:58:58.669Z,11.30
2018-12-23T21:03:59.179Z,11.10
2018-12-23T21:06:36.858Z,11.00
2018-12-23T21:09:43.967Z,11.00
2018-12-23T21:14:26.887Z,10.90
2018-12-23T21:17:10.281Z,10.80
2018-12-23T21:20:03.692Z,10.70
2018-12-23T21:22:42.420Z,10.80
2018-12-23T21:27:43.250Z,10.80
2018-12-23T21:30:29.666Z,10.70
2018-12-23T21:33:49.942Z,10.60
2018-12-23T21:36:32.113Z,10.60
2018-12-23T21:39:13.752Z,10.30
2018-12-23T21:41:55.018Z,11.10
2018-12-23T21:44:35.216Z,10.60
2018-12-23T21:50:52.460Z,11.30
2018-12-23T21:53:34.437Z,10.60
2018-12-23T21:56:14.609Z,10.60
2018-12-23T21:58:55.620Z,10.60
2018-12-23T22:01:35.746Z,10.60
2018-12-23T22:04:16.768Z,10.80
2018-12-23T22:07:01.554Z,10.70
2018-12-23T22:10:01.361Z,11.10
2018-12-23T22:12:42.005Z,11.10
2018-12-23T22:15:23.141Z,10.80
2018-12-23T22:18:03.162Z,10.00
2018-12-23T22:23:30.820Z,10.70
2018-12-23T22:29:00.560Z,10.70
2018-12-23T22:31:41.953Z,10.90
2018-12-23T22:37:47.509Z,10.80
2018-12-23T22:40:28.696Z,10.90
2018-12-23T22:43:08.607Z,11.00
2018-12-23T22:45:48.836Z,11.00
2018-12-23T22:48:29.021Z,10.60
2018-12-23T22:51:11.111Z,11.30
2018-12-23T22:57:28.929Z,11.10
2018-12-23T23:00:12.233Z,11.50
2018-12-23T23:02:52.637Z,10.60
2018-12-23T23:05:33.168Z,11.20
2018-12-23T23:11:21.689Z,11.60
2018-12-23T23:14:01.762Z,11.20
2018-12-23T23:16:41.958Z,11.10
2018-12-23T23:19:25.707Z,11.10
2018-12-23T23:25:46.629Z,11.50
2018-12-23T23:31:12.977Z,11.20
2018-12-23T23:37:30.412Z,11.20
2018-12-23T23:46:57.316Z,11.10
2018-12-23T23:52:39.161Z,10.70
2018-12-23T23:55:18.795Z,10.30
2018-12-23T23:58:18.458Z,11.10
